Albany, New York
Traffic Map
Current Weather Conditions
Albany, New York
Overcast
Overcast

Feels Like: 3°
Wind Chill: Ceiling: 600
Heat Index: Visibility: 3mi
Dew Point: Wind: 9mph
Humidity: 85% Direction: 360° (N)
Pressure: 29.76in Gusts: 0mph
Raw Report DataKALB 221851Z 36008KT 3SM OVC006 06/03 A2976 RMK AO2 SFC VIS 7 SLP080 T00560033
Traffic Incident Summary
Active as of:
Severity:
Category:
InformationThere was an issue retrieving the traffic information for this location. Please try a different location or try again shortly.
Advertisements
Track Severe Weather on mobile